sensor_id;sensor_type;location;lat;lon;timestamp;P1;durP1;ratioP1;P2;durP2;ratioP2
38994;SDS011;24769;18.712;99.000;2023-02-26T00:00:05;70.80;;;59.80;;
38994;SDS011;24769;18.712;99.000;2023-02-26T00:02:36;75.50;;;67.25;;
38994;SDS011;24769;18.712;99.000;2023-02-26T00:05:04;73.20;;;64.00;;
38994;SDS011;24769;18.712;99.000;2023-02-26T00:07:31;73.80;;;64.40;;
38994;SDS011;24769;18.712;99.000;2023-02-26T00:09:57;74.20;;;65.60;;
38994;SDS011;24769;18.712;99.000;2023-02-26T00:12:25;75.40;;;66.00;;
38994;SDS011;24769;18.712;99.000;2023-02-26T00:14:53;77.20;;;71.60;;
38994;SDS011;24769;18.712;99.000;2023-02-26T00:19:52;76.20;;;69.20;;
38994;SDS011;24769;18.712;99.000;2023-02-26T00:22:19;77.40;;;69.60;;
38994;SDS011;24769;18.712;99.000;2023-02-26T00:24:46;81.00;;;77.00;;
38994;SDS011;24769;18.712;99.000;2023-02-26T00:27:13;82.60;;;80.40;;
38994;SDS011;24769;18.712;99.000;2023-02-26T00:29:39;81.80;;;78.60;;
38994;SDS011;24769;18.712;99.000;2023-02-26T00:32:06;80.40;;;76.80;;
38994;SDS011;24769;18.712;99.000;2023-02-26T00:34:33;84.20;;;80.40;;
38994;SDS011;24769;18.712;99.000;2023-02-26T00:37:21;81.20;;;78.40;;
38994;SDS011;24769;18.712;99.000;2023-02-26T00:39:58;81.40;;;78.40;;
38994;SDS011;24769;18.712;99.000;2023-02-26T00:42:27;77.20;;;70.80;;
38994;SDS011;24769;18.712;99.000;2023-02-26T00:44:54;86.20;;;85.20;;
38994;SDS011;24769;18.712;99.000;2023-02-26T00:47:39;81.60;;;77.80;;
38994;SDS011;24769;18.712;99.000;2023-02-26T00:55:15;76.00;;;69.20;;
38994;SDS011;24769;18.712;99.000;2023-02-26T00:57:42;77.20;;;71.60;;
38994;SDS011;24769;18.712;99.000;2023-02-26T01:00:09;76.80;;;70.00;;
38994;SDS011;24769;18.712;99.000;2023-02-26T01:02:37;76.60;;;69.60;;
38994;SDS011;24769;18.712;99.000;2023-02-26T01:05:05;74.60;;;64.40;;
38994;SDS011;24769;18.712;99.000;2023-02-26T01:10:19;76.40;;;68.80;;
38994;SDS011;24769;18.712;99.000;2023-02-26T01:12:46;75.20;;;66.60;;
38994;SDS011;24769;18.712;99.000;2023-02-26T01:15:13;75.60;;;67.40;;
38994;SDS011;24769;18.712;99.000;2023-02-26T01:20:20;69.20;;;58.40;;
38994;SDS011;24769;18.712;99.000;2023-02-26T01:25:22;67.60;;;55.40;;
38994;SDS011;24769;18.712;99.000;2023-02-26T01:28:03;67.75;;;56.25;;
38994;SDS011;24769;18.712;99.000;2023-02-26T01:30:30;67.40;;;55.60;;
38994;SDS011;24769;18.712;99.000;2023-02-26T01:33:02;68.50;;;56.50;;
38994;SDS011;24769;18.712;99.000;2023-02-26T01:35:47;66.00;;;55.25;;
38994;SDS011;24769;18.712;99.000;2023-02-26T01:38:21;65.50;;;53.75;;
38994;SDS011;24769;18.712;99.000;2023-02-26T01:46:27;98.60;;;96.80;;
38994;SDS011;24769;18.712;99.000;2023-02-26T01:48:59;97.40;;;96.80;;
38994;SDS011;24769;18.712;99.000;2023-02-26T01:54:15;90.80;;;89.40;;
38994;SDS011;24769;18.712;99.000;2023-02-26T01:56:44;92.40;;;91.40;;
38994;SDS011;24769;18.712;99.000;2023-02-26T01:59:14;91.80;;;90.00;;
38994;SDS011;24769;18.712;99.000;2023-02-26T02:01:48;78.80;;;74.40;;
38994;SDS011;24769;18.712;99.000;2023-02-26T02:04:19;82.00;;;80.60;;
38994;SDS011;24769;18.712;99.000;2023-02-26T02:06:46;75.20;;;67.80;;
38994;SDS011;24769;18.712;99.000;2023-02-26T02:09:13;72.80;;;64.40;;
38994;SDS011;24769;18.712;99.000;2023-02-26T02:17:25;63.00;;;51.50;;
38994;SDS011;24769;18.712;99.000;2023-02-26T02:30:54;65.25;;;53.25;;
38994;SDS011;24769;18.712;99.000;2023-02-26T02:33:46;68.00;;;54.50;;
38994;SDS011;24769;18.712;99.000;2023-02-26T02:36:27;68.25;;;53.75;;
38994;SDS011;24769;18.712;99.000;2023-02-26T02:39:05;58.00;;;48.50;;
38994;SDS011;24769;18.712;99.000;2023-02-26T02:41:55;64.00;;;53.00;;
38994;SDS011;24769;18.712;99.000;2023-02-26T02:44:28;67.75;;;55.00;;
38994;SDS011;24769;18.712;99.000;2023-02-26T02:46:58;65.50;;;53.75;;
38994;SDS011;24769;18.712;99.000;2023-02-26T02:49:28;64.75;;;53.25;;
38994;SDS011;24769;18.712;99.000;2023-02-26T02:52:20;66.50;;;54.75;;
38994;SDS011;24769;18.712;99.000;2023-02-26T02:55:15;68.75;;;58.00;;
38994;SDS011;24769;18.712;99.000;2023-02-26T02:57:57;64.50;;;53.50;;
38994;SDS011;24769;18.712;99.000;2023-02-26T03:00:30;56.75;;;47.00;;
38994;SDS011;24769;18.712;99.000;2023-02-26T03:05:51;63.50;;;51.75;;
38994;SDS011;24769;18.712;99.000;2023-02-26T03:08:19;62.00;;;51.75;;
38994;SDS011;24769;18.712;99.000;2023-02-26T03:10:51;60.50;;;50.00;;
38994;SDS011;24769;18.712;99.000;2023-02-26T03:13:21;63.00;;;52.25;;
38994;SDS011;24769;18.712;99.000;2023-02-26T03:18:23;59.75;;;49.50;;
38994;SDS011;24769;18.712;99.000;2023-02-26T03:21:16;57.00;;;47.75;;
38994;SDS011;24769;18.712;99.000;2023-02-26T03:24:20;58.50;;;49.00;;
38994;SDS011;24769;18.712;99.000;2023-02-26T03:26:55;62.25;;;51.75;;
38994;SDS011;24769;18.712;99.000;2023-02-26T03:31:59;63.50;;;52.50;;
38994;SDS011;24769;18.712;99.000;2023-02-26T03:37:43;62.50;;;51.75;;
38994;SDS011;24769;18.712;99.000;2023-02-26T03:40:44;62.50;;;51.50;;
38994;SDS011;24769;18.712;99.000;2023-02-26T03:46:25;62.50;;;51.25;;
38994;SDS011;24769;18.712;99.000;2023-02-26T03:48:57;62.25;;;51.25;;
38994;SDS011;24769;18.712;99.000;2023-02-26T03:51:31;63.25;;;51.75;;
38994;SDS011;24769;18.712;99.000;2023-02-26T03:54:05;64.00;;;52.25;;
38994;SDS011;24769;18.712;99.000;2023-02-26T03:56:44;67.25;;;56.00;;
38994;SDS011;24769;18.712;99.000;2023-02-26T03:59:12;63.00;;;51.50;;
38994;SDS011;24769;18.712;99.000;2023-02-26T04:01:46;63.75;;;52.50;;
38994;SDS011;24769;18.712;99.000;2023-02-26T04:04:40;57.50;;;48.00;;
38994;SDS011;24769;18.712;99.000;2023-02-26T04:07:10;61.50;;;50.75;;
38994;SDS011;24769;18.712;99.000;2023-02-26T04:09:45;64.75;;;53.50;;
38994;SDS011;24769;18.712;99.000;2023-02-26T04:12:13;61.50;;;50.75;;
38994;SDS011;24769;18.712;99.000;2023-02-26T04:14:40;64.00;;;53.00;;
38994;SDS011;24769;18.712;99.000;2023-02-26T04:17:07;66.25;;;55.25;;
38994;SDS011;24769;18.712;99.000;2023-02-26T04:19:33;63.25;;;51.25;;
38994;SDS011;24769;18.712;99.000;2023-02-26T04:22:00;62.00;;;51.00;;
38994;SDS011;24769;18.712;99.000;2023-02-26T04:24:27;63.25;;;52.50;;
38994;SDS011;24769;18.712;99.000;2023-02-26T04:26:53;63.00;;;52.00;;
38994;SDS011;24769;18.712;99.000;2023-02-26T04:29:20;66.50;;;55.50;;
38994;SDS011;24769;18.712;99.000;2023-02-26T04:31:46;57.75;;;48.00;;
38994;SDS011;24769;18.712;99.000;2023-02-26T04:34:13;61.50;;;50.50;;
38994;SDS011;24769;18.712;99.000;2023-02-26T04:36:40;64.00;;;53.00;;
38994;SDS011;24769;18.712;99.000;2023-02-26T04:39:06;64.25;;;52.50;;
38994;SDS011;24769;18.712;99.000;2023-02-26T04:41:35;64.50;;;53.00;;
38994;SDS011;24769;18.712;99.000;2023-02-26T04:44:02;64.75;;;53.25;;
38994;SDS011;24769;18.712;99.000;2023-02-26T04:46:30;51.50;;;43.50;;
38994;SDS011;24769;18.712;99.000;2023-02-26T04:48:57;61.00;;;51.00;;
38994;SDS011;24769;18.712;99.000;2023-02-26T04:51:23;64.25;;;53.00;;
38994;SDS011;24769;18.712;99.000;2023-02-26T04:53:50;66.00;;;55.25;;
38994;SDS011;24769;18.712;99.000;2023-02-26T04:56:17;61.25;;;51.00;;
38994;SDS011;24769;18.712;99.000;2023-02-26T04:58:44;61.75;;;51.00;;
38994;SDS011;24769;18.712;99.000;2023-02-26T05:01:11;63.50;;;52.50;;
38994;SDS011;24769;18.712;99.000;2023-02-26T05:03:38;64.00;;;53.00;;
38994;SDS011;24769;18.712;99.000;2023-02-26T05:06:05;64.75;;;53.75;;
38994;SDS011;24769;18.712;99.000;2023-02-26T05:08:32;63.00;;;51.50;;
38994;SDS011;24769;18.712;99.000;2023-02-26T05:10:58;57.00;;;47.75;;
38994;SDS011;24769;18.712;99.000;2023-02-26T05:13:25;62.00;;;51.00;;
38994;SDS011;24769;18.712;99.000;2023-02-26T05:15:52;55.00;;;45.20;;
38994;SDS011;24769;18.712;99.000;2023-02-26T05:18:19;61.75;;;50.50;;
38994;SDS011;24769;18.712;99.000;2023-02-26T05:20:50;62.00;;;51.60;;
38994;SDS011;24769;18.712;99.000;2023-02-26T05:23:18;62.60;;;52.00;;
38994;SDS011;24769;18.712;99.000;2023-02-26T05:25:45;60.40;;;50.20;;
38994;SDS011;24769;18.712;99.000;2023-02-26T05:28:12;61.25;;;50.75;;
38994;SDS011;24769;18.712;99.000;2023-02-26T05:30:39;56.40;;;47.40;;
38994;SDS011;24769;18.712;99.000;2023-02-26T05:33:06;62.20;;;51.00;;
38994;SDS011;24769;18.712;99.000;2023-02-26T05:35:32;62.00;;;51.20;;
38994;SDS011;24769;18.712;99.000;2023-02-26T05:37:59;59.40;;;49.20;;
38994;SDS011;24769;18.712;99.000;2023-02-26T05:40:26;60.40;;;49.40;;
38994;SDS011;24769;18.712;99.000;2023-02-26T05:42:52;61.60;;;51.00;;
38994;SDS011;24769;18.712;99.000;2023-02-26T05:45:19;61.80;;;50.80;;
38994;SDS011;24769;18.712;99.000;2023-02-26T05:47:45;64.75;;;53.00;;
38994;SDS011;24769;18.712;99.000;2023-02-26T05:50:12;52.75;;;44.25;;
38994;SDS011;24769;18.712;99.000;2023-02-26T05:52:39;66.00;;;54.20;;
38994;SDS011;24769;18.712;99.000;2023-02-26T05:55:06;60.00;;;50.00;;
38994;SDS011;24769;18.712;99.000;2023-02-26T05:57:33;63.00;;;51.50;;
38994;SDS011;24769;18.712;99.000;2023-02-26T06:00:00;64.25;;;52.75;;
38994;SDS011;24769;18.712;99.000;2023-02-26T06:02:26;66.75;;;55.00;;
38994;SDS011;24769;18.712;99.000;2023-02-26T06:04:53;64.50;;;53.25;;
38994;SDS011;24769;18.712;99.000;2023-02-26T06:07:20;65.50;;;53.00;;
38994;SDS011;24769;18.712;99.000;2023-02-26T06:09:46;63.50;;;52.50;;
38994;SDS011;24769;18.712;99.000;2023-02-26T06:12:13;63.20;;;51.60;;
38994;SDS011;24769;18.712;99.000;2023-02-26T06:14:39;63.40;;;52.20;;
38994;SDS011;24769;18.712;99.000;2023-02-26T06:17:06;61.40;;;51.00;;
38994;SDS011;24769;18.712;99.000;2023-02-26T06:19:33;66.50;;;55.75;;
38994;SDS011;24769;18.712;99.000;2023-02-26T06:21:59;63.60;;;52.20;;
38994;SDS011;24769;18.712;99.000;2023-02-26T06:24:26;67.00;;;57.00;;
38994;SDS011;24769;18.712;99.000;2023-02-26T06:26:53;66.50;;;55.75;;
38994;SDS011;24769;18.712;99.000;2023-02-26T06:29:19;66.25;;;53.25;;
38994;SDS011;24769;18.712;99.000;2023-02-26T06:31:47;63.25;;;52.00;;
38994;SDS011;24769;18.712;99.000;2023-02-26T06:34:15;60.60;;;50.20;;
38994;SDS011;24769;18.712;99.000;2023-02-26T06:36:41;61.00;;;50.40;;
38994;SDS011;24769;18.712;99.000;2023-02-26T06:39:08;60.00;;;50.00;;
38994;SDS011;24769;18.712;99.000;2023-02-26T06:41:36;51.25;;;43.00;;
38994;SDS011;24769;18.712;99.000;2023-02-26T06:44:03;60.60;;;50.00;;
38994;SDS011;24769;18.712;99.000;2023-02-26T06:46:30;64.00;;;52.40;;
38994;SDS011;24769;18.712;99.000;2023-02-26T06:48:57;62.20;;;51.60;;
38994;SDS011;24769;18.712;99.000;2023-02-26T06:51:24;61.60;;;50.60;;
38994;SDS011;24769;18.712;99.000;2023-02-26T06:53:51;60.40;;;50.20;;
38994;SDS011;24769;18.712;99.000;2023-02-26T06:56:18;60.60;;;50.00;;
38994;SDS011;24769;18.712;99.000;2023-02-26T06:58:45;60.20;;;49.80;;
38994;SDS011;24769;18.712;99.000;2023-02-26T07:01:11;60.60;;;50.40;;
38994;SDS011;24769;18.712;99.000;2023-02-26T07:03:38;58.40;;;49.20;;
38994;SDS011;24769;18.712;99.000;2023-02-26T07:06:05;60.80;;;50.00;;
38994;SDS011;24769;18.712;99.000;2023-02-26T07:08:33;59.60;;;49.60;;
38994;SDS011;24769;18.712;99.000;2023-02-26T07:11:00;60.40;;;50.00;;
38994;SDS011;24769;18.712;99.000;2023-02-26T07:13:27;62.20;;;51.60;;
38994;SDS011;24769;18.712;99.000;2023-02-26T07:15:53;59.20;;;49.60;;
38994;SDS011;24769;18.712;99.000;2023-02-26T07:18:20;56.60;;;47.40;;
38994;SDS011;24769;18.712;99.000;2023-02-26T07:20:50;60.60;;;50.00;;
38994;SDS011;24769;18.712;99.000;2023-02-26T07:23:17;58.20;;;48.60;;
38994;SDS011;24769;18.712;99.000;2023-02-26T07:25:43;61.40;;;50.60;;
38994;SDS011;24769;18.712;99.000;2023-02-26T07:28:10;61.80;;;51.40;;
38994;SDS011;24769;18.712;99.000;2023-02-26T07:30:36;60.80;;;50.20;;
38994;SDS011;24769;18.712;99.000;2023-02-26T07:33:06;55.00;;;46.00;;
38994;SDS011;24769;18.712;99.000;2023-02-26T07:35:34;58.20;;;48.80;;
38994;SDS011;24769;18.712;99.000;2023-02-26T07:38:00;61.60;;;51.00;;
38994;SDS011;24769;18.712;99.000;2023-02-26T07:40:27;56.40;;;47.20;;
38994;SDS011;24769;18.712;99.000;2023-02-26T07:42:54;57.00;;;47.40;;
38994;SDS011;24769;18.712;99.000;2023-02-26T07:45:23;64.80;;;53.00;;
38994;SDS011;24769;18.712;99.000;2023-02-26T07:47:51;56.60;;;47.40;;
38994;SDS011;24769;18.712;99.000;2023-02-26T07:50:18;61.00;;;50.60;;
38994;SDS011;24769;18.712;99.000;2023-02-26T07:52:45;57.20;;;48.20;;
38994;SDS011;24769;18.712;99.000;2023-02-26T07:55:12;60.60;;;49.00;;
38994;SDS011;24769;18.712;99.000;2023-02-26T08:00:38;55.60;;;46.60;;
38994;SDS011;24769;18.712;99.000;2023-02-26T08:03:04;60.60;;;50.00;;
38994;SDS011;24769;18.712;99.000;2023-02-26T08:05:31;57.60;;;48.00;;
38994;SDS011;24769;18.712;99.000;2023-02-26T08:07:57;57.80;;;48.40;;
38994;SDS011;24769;18.712;99.000;2023-02-26T08:10:26;60.40;;;50.00;;
38994;SDS011;24769;18.712;99.000;2023-02-26T08:12:53;54.00;;;45.80;;
38994;SDS011;24769;18.712;99.000;2023-02-26T08:15:20;56.80;;;47.60;;
38994;SDS011;24769;18.712;99.000;2023-02-26T08:17:46;33.60;;;32.20;;
38994;SDS011;24769;18.712;99.000;2023-02-26T08:20:13;54.80;;;46.00;;
38994;SDS011;24769;18.712;99.000;2023-02-26T08:22:40;58.20;;;48.60;;
38994;SDS011;24769;18.712;99.000;2023-02-26T08:25:07;58.40;;;48.00;;
38994;SDS011;24769;18.712;99.000;2023-02-26T08:27:34;57.80;;;48.20;;
38994;SDS011;24769;18.712;99.000;2023-02-26T08:30:01;57.20;;;47.60;;
38994;SDS011;24769;18.712;99.000;2023-02-26T08:32:29;59.20;;;49.00;;
38994;SDS011;24769;18.712;99.000;2023-02-26T08:34:56;60.60;;;50.40;;
38994;SDS011;24769;18.712;99.000;2023-02-26T08:37:22;60.80;;;50.00;;
38994;SDS011;24769;18.712;99.000;2023-02-26T08:39:49;58.20;;;48.40;;
38994;SDS011;24769;18.712;99.000;2023-02-26T08:42:16;56.60;;;47.20;;
38994;SDS011;24769;18.712;99.000;2023-02-26T08:44:45;59.40;;;49.40;;
38994;SDS011;24769;18.712;99.000;2023-02-26T08:47:12;62.00;;;50.60;;
38994;SDS011;24769;18.712;99.000;2023-02-26T08:49:39;59.40;;;49.00;;
38994;SDS011;24769;18.712;99.000;2023-02-26T08:52:05;61.20;;;50.60;;
38994;SDS011;24769;18.712;99.000;2023-02-26T08:54:32;58.80;;;49.20;;
38994;SDS011;24769;18.712;99.000;2023-02-26T08:56:59;54.00;;;45.60;;
38994;SDS011;24769;18.712;99.000;2023-02-26T08:59:25;56.00;;;47.00;;
38994;SDS011;24769;18.712;99.000;2023-02-26T09:01:52;57.00;;;48.00;;
38994;SDS011;24769;18.712;99.000;2023-02-26T09:04:19;56.20;;;47.20;;
38994;SDS011;24769;18.712;99.000;2023-02-26T09:06:45;56.40;;;47.40;;
38994;SDS011;24769;18.712;99.000;2023-02-26T09:09:12;56.80;;;47.80;;
38994;SDS011;24769;18.712;99.000;2023-02-26T09:11:39;51.20;;;43.80;;
38994;SDS011;24769;18.712;99.000;2023-02-26T09:14:05;60.20;;;49.80;;
38994;SDS011;24769;18.712;99.000;2023-02-26T09:16:32;53.00;;;44.80;;
38994;SDS011;24769;18.712;99.000;2023-02-26T09:19:01;59.40;;;49.60;;
38994;SDS011;24769;18.712;99.000;2023-02-26T09:21:29;60.00;;;49.00;;
38994;SDS011;24769;18.712;99.000;2023-02-26T09:23:56;57.20;;;47.80;;
38994;SDS011;24769;18.712;99.000;2023-02-26T09:26:23;57.40;;;48.00;;
38994;SDS011;24769;18.712;99.000;2023-02-26T09:28:49;58.80;;;49.20;;
38994;SDS011;24769;18.712;99.000;2023-02-26T09:31:16;55.20;;;46.20;;
38994;SDS011;24769;18.712;99.000;2023-02-26T09:33:43;55.80;;;46.40;;
38994;SDS011;24769;18.712;99.000;2023-02-26T09:36:10;57.80;;;48.60;;
38994;SDS011;24769;18.712;99.000;2023-02-26T09:38:36;57.40;;;48.20;;
38994;SDS011;24769;18.712;99.000;2023-02-26T09:49:22;56.00;;;47.00;;
38994;SDS011;24769;18.712;99.000;2023-02-26T09:51:51;53.00;;;44.60;;
38994;SDS011;24769;18.712;99.000;2023-02-26T09:54:22;55.20;;;46.40;;
38994;SDS011;24769;18.712;99.000;2023-02-26T09:56:51;59.00;;;49.20;;
38994;SDS011;24769;18.712;99.000;2023-02-26T09:59:20;59.50;;;49.75;;
38994;SDS011;24769;18.712;99.000;2023-02-26T10:01:55;58.25;;;48.50;;
38994;SDS011;24769;18.712;99.000;2023-02-26T10:09:52;57.50;;;48.00;;
38994;SDS011;24769;18.712;99.000;2023-02-26T10:12:29;62.00;;;51.25;;
38994;SDS011;24769;18.712;99.000;2023-02-26T10:20:55;61.50;;;51.00;;
38994;SDS011;24769;18.712;99.000;2023-02-26T10:39:56;58.75;;;49.25;;
38994;SDS011;24769;18.712;99.000;2023-02-26T10:42:46;61.00;;;50.25;;
38994;SDS011;24769;18.712;99.000;2023-02-26T10:45:23;63.00;;;51.50;;
38994;SDS011;24769;18.712;99.000;2023-02-26T10:50:53;63.75;;;52.75;;
38994;SDS011;24769;18.712;99.000;2023-02-26T10:53:23;62.75;;;51.75;;
38994;SDS011;24769;18.712;99.000;2023-02-26T10:55:54;64.00;;;52.50;;
38994;SDS011;24769;18.712;99.000;2023-02-26T10:58:38;63.75;;;52.50;;
38994;SDS011;24769;18.712;99.000;2023-02-26T11:01:09;62.00;;;51.25;;
38994;SDS011;24769;18.712;99.000;2023-02-26T11:03:45;62.50;;;51.75;;
38994;SDS011;24769;18.712;99.000;2023-02-26T11:06:21;61.75;;;50.75;;
38994;SDS011;24769;18.712;99.000;2023-02-26T11:09:04;64.75;;;52.50;;
38994;SDS011;24769;18.712;99.000;2023-02-26T11:11:44;61.75;;;50.75;;
38994;SDS011;24769;18.712;99.000;2023-02-26T11:14:13;62.75;;;51.25;;
38994;SDS011;24769;18.712;99.000;2023-02-26T11:17:03;62.50;;;51.00;;
38994;SDS011;24769;18.712;99.000;2023-02-26T11:19:34;64.75;;;53.25;;
38994;SDS011;24769;18.712;99.000;2023-02-26T11:22:04;63.50;;;52.00;;
38994;SDS011;24769;18.712;99.000;2023-02-26T11:24:43;65.00;;;53.50;;
38994;SDS011;24769;18.712;99.000;2023-02-26T11:27:20;63.75;;;52.75;;
38994;SDS011;24769;18.712;99.000;2023-02-26T11:29:58;69.00;;;57.75;;
38994;SDS011;24769;18.712;99.000;2023-02-26T11:32:36;67.75;;;56.25;;
38994;SDS011;24769;18.712;99.000;2023-02-26T11:35:06;69.75;;;59.75;;
38994;SDS011;24769;18.712;99.000;2023-02-26T11:37:56;65.00;;;53.75;;
38994;SDS011;24769;18.712;99.000;2023-02-26T11:40:37;69.00;;;59.00;;
38994;SDS011;24769;18.712;99.000;2023-02-26T11:43:16;66.25;;;54.75;;
38994;SDS011;24769;18.712;99.000;2023-02-26T11:45:45;68.25;;;56.75;;
38994;SDS011;24769;18.712;99.000;2023-02-26T11:48:24;70.25;;;60.25;;
38994;SDS011;24769;18.712;99.000;2023-02-26T11:50:55;70.50;;;60.25;;
38994;SDS011;24769;18.712;99.000;2023-02-26T11:55:58;69.50;;;58.25;;
38994;SDS011;24769;18.712;99.000;2023-02-26T11:58:28;69.00;;;58.75;;
38994;SDS011;24769;18.712;99.000;2023-02-26T12:00:59;65.50;;;54.00;;
38994;SDS011;24769;18.712;99.000;2023-02-26T12:03:28;65.50;;;54.00;;
38994;SDS011;24769;18.712;99.000;2023-02-26T12:05:58;67.50;;;56.25;;
38994;SDS011;24769;18.712;99.000;2023-02-26T12:11:50;68.25;;;57.00;;
38994;SDS011;24769;18.712;99.000;2023-02-26T12:30:02;70.50;;;57.50;;
38994;SDS011;24769;18.712;99.000;2023-02-26T12:32:35;70.75;;;59.00;;
38994;SDS011;24769;18.712;99.000;2023-02-26T12:38:53;69.25;;;57.25;;
38994;SDS011;24769;18.712;99.000;2023-02-26T13:08:44;73.60;;;65.20;;
38994;SDS011;24769;18.712;99.000;2023-02-26T13:14:40;72.20;;;62.80;;
38994;SDS011;24769;18.712;99.000;2023-02-26T13:20:17;75.80;;;69.20;;
38994;SDS011;24769;18.712;99.000;2023-02-26T13:22:58;73.80;;;64.80;;
38994;SDS011;24769;18.712;99.000;2023-02-26T13:31:09;73.60;;;64.80;;
38994;SDS011;24769;18.712;99.000;2023-02-26T13:33:47;74.20;;;66.60;;
38994;SDS011;24769;18.712;99.000;2023-02-26T13:36:15;70.20;;;59.80;;
38994;SDS011;24769;18.712;99.000;2023-02-26T13:52:52;78.60;;;71.20;;
38994;SDS011;24769;18.712;99.000;2023-02-26T14:00:59;76.00;;;68.00;;
38994;SDS011;24769;18.712;99.000;2023-02-26T14:03:34;76.40;;;68.80;;
38994;SDS011;24769;18.712;99.000;2023-02-26T14:21:55;77.20;;;70.80;;
38994;SDS011;24769;18.712;99.000;2023-02-26T14:24:42;73.60;;;64.20;;
38994;SDS011;24769;18.712;99.000;2023-02-26T14:29:52;73.00;;;62.80;;
38994;SDS011;24769;18.712;99.000;2023-02-26T14:35:04;75.80;;;67.00;;
38994;SDS011;24769;18.712;99.000;2023-02-26T14:37:36;77.00;;;70.20;;
38994;SDS011;24769;18.712;99.000;2023-02-26T14:40:16;78.20;;;71.00;;
38994;SDS011;24769;18.712;99.000;2023-02-26T14:42:50;74.00;;;63.60;;
38994;SDS011;24769;18.712;99.000;2023-02-26T14:47:56;89.00;;;87.40;;
38994;SDS011;24769;18.712;99.000;2023-02-26T14:50:24;90.00;;;89.40;;
38994;SDS011;24769;18.712;99.000;2023-02-26T14:56:07;83.40;;;82.40;;
38994;SDS011;24769;18.712;99.000;2023-02-26T15:07:47;85.40;;;84.40;;
38994;SDS011;24769;18.712;99.000;2023-02-26T15:21:33;80.60;;;75.00;;
38994;SDS011;24769;18.712;99.000;2023-02-26T15:24:17;81.80;;;76.00;;
38994;SDS011;24769;18.712;99.000;2023-02-26T15:26:45;81.60;;;77.80;;
38994;SDS011;24769;18.712;99.000;2023-02-26T15:29:18;80.80;;;75.80;;
38994;SDS011;24769;18.712;99.000;2023-02-26T15:31:53;78.40;;;71.20;;
38994;SDS011;24769;18.712;99.000;2023-02-26T15:34:27;80.40;;;75.40;;
38994;SDS011;24769;18.712;99.000;2023-02-26T15:36:55;80.20;;;75.20;;
38994;SDS011;24769;18.712;99.000;2023-02-26T15:39:23;76.80;;;69.00;;
38994;SDS011;24769;18.712;99.000;2023-02-26T15:41:50;78.40;;;71.60;;
38994;SDS011;24769;18.712;99.000;2023-02-26T15:44:23;81.80;;;77.80;;
38994;SDS011;24769;18.712;99.000;2023-02-26T15:46:57;78.60;;;70.20;;
38994;SDS011;24769;18.712;99.000;2023-02-26T15:49:37;82.00;;;76.00;;
38994;SDS011;24769;18.712;99.000;2023-02-26T15:52:07;75.60;;;66.60;;
38994;SDS011;24769;18.712;99.000;2023-02-26T15:54:50;77.00;;;69.60;;
38994;SDS011;24769;18.712;99.000;2023-02-26T15:57:20;78.40;;;70.20;;
38994;SDS011;24769;18.712;99.000;2023-02-26T15:59:50;79.00;;;73.00;;
38994;SDS011;24769;18.712;99.000;2023-02-26T16:02:19;81.60;;;78.40;;
38994;SDS011;24769;18.712;99.000;2023-02-26T16:04:52;77.40;;;69.00;;
38994;SDS011;24769;18.712;99.000;2023-02-26T16:07:18;77.80;;;70.60;;
38994;SDS011;24769;18.712;99.000;2023-02-26T16:09:46;79.00;;;71.60;;
38994;SDS011;24769;18.712;99.000;2023-02-26T16:12:20;81.00;;;77.00;;
38994;SDS011;24769;18.712;99.000;2023-02-26T16:15:24;77.80;;;70.20;;
38994;SDS011;24769;18.712;99.000;2023-02-26T16:17:56;76.40;;;67.00;;
38994;SDS011;24769;18.712;99.000;2023-02-26T16:20:24;80.00;;;74.40;;
38994;SDS011;24769;18.712;99.000;2023-02-26T16:22:55;79.80;;;75.40;;
38994;SDS011;24769;18.712;99.000;2023-02-26T16:25:32;80.40;;;76.00;;
38994;SDS011;24769;18.712;99.000;2023-02-26T16:28:05;79.60;;;74.00;;
38994;SDS011;24769;18.712;99.000;2023-02-26T16:30:39;78.80;;;72.00;;
38994;SDS011;24769;18.712;99.000;2023-02-26T16:33:11;78.80;;;71.80;;
38994;SDS011;24769;18.712;99.000;2023-02-26T16:35:52;77.60;;;70.00;;
38994;SDS011;24769;18.712;99.000;2023-02-26T16:38:44;79.20;;;71.60;;
38994;SDS011;24769;18.712;99.000;2023-02-26T16:41:20;78.60;;;72.20;;
38994;SDS011;24769;18.712;99.000;2023-02-26T16:43:50;78.40;;;70.00;;
38994;SDS011;24769;18.712;99.000;2023-02-26T16:46:32;77.20;;;68.60;;
38994;SDS011;24769;18.712;99.000;2023-02-26T16:51:49;81.00;;;78.20;;
38994;SDS011;24769;18.712;99.000;2023-02-26T16:57:17;80.60;;;77.40;;
38994;SDS011;24769;18.712;99.000;2023-02-26T16:59:51;78.60;;;73.60;;
38994;SDS011;24769;18.712;99.000;2023-02-26T17:02:21;77.20;;;70.40;;
38994;SDS011;24769;18.712;99.000;2023-02-26T17:04:53;82.60;;;81.00;;
38994;SDS011;24769;18.712;99.000;2023-02-26T17:07:29;76.00;;;70.60;;
38994;SDS011;24769;18.712;99.000;2023-02-26T17:09:58;76.60;;;71.40;;
38994;SDS011;24769;18.712;99.000;2023-02-26T17:15:11;74.20;;;65.00;;
38994;SDS011;24769;18.712;99.000;2023-02-26T17:17:46;78.40;;;74.20;;
38994;SDS011;24769;18.712;99.000;2023-02-26T17:20:13;75.60;;;68.40;;
38994;SDS011;24769;18.712;99.000;2023-02-26T17:22:41;76.80;;;71.80;;
38994;SDS011;24769;18.712;99.000;2023-02-26T17:25:13;76.40;;;68.80;;
38994;SDS011;24769;18.712;99.000;2023-02-26T17:27:41;77.20;;;71.00;;
38994;SDS011;24769;18.712;99.000;2023-02-26T17:30:10;74.40;;;68.00;;
38994;SDS011;24769;18.712;99.000;2023-02-26T17:32:40;73.40;;;66.40;;
38994;SDS011;24769;18.712;99.000;2023-02-26T17:35:10;78.40;;;74.00;;
38994;SDS011;24769;18.712;99.000;2023-02-26T17:37:38;76.00;;;70.40;;
38994;SDS011;24769;18.712;99.000;2023-02-26T17:40:13;78.00;;;74.40;;
38994;SDS011;24769;18.712;99.000;2023-02-26T17:42:52;78.20;;;72.60;;
38994;SDS011;24769;18.712;99.000;2023-02-26T17:45:19;77.80;;;73.80;;
38994;SDS011;24769;18.712;99.000;2023-02-26T17:47:46;79.40;;;74.80;;
38994;SDS011;24769;18.712;99.000;2023-02-26T17:50:18;77.40;;;72.80;;
38994;SDS011;24769;18.712;99.000;2023-02-26T17:52:57;75.40;;;69.20;;
38994;SDS011;24769;18.712;99.000;2023-02-26T17:55:24;75.80;;;69.60;;
38994;SDS011;24769;18.712;99.000;2023-02-26T17:57:50;77.80;;;73.40;;
38994;SDS011;24769;18.712;99.000;2023-02-26T18:00:17;76.60;;;70.80;;
38994;SDS011;24769;18.712;99.000;2023-02-26T18:02:44;77.60;;;72.40;;
38994;SDS011;24769;18.712;99.000;2023-02-26T18:05:10;76.80;;;71.20;;
38994;SDS011;24769;18.712;99.000;2023-02-26T18:07:37;78.00;;;72.80;;
38994;SDS011;24769;18.712;99.000;2023-02-26T18:10:04;80.40;;;76.00;;
38994;SDS011;24769;18.712;99.000;2023-02-26T18:12:31;80.20;;;77.00;;
38994;SDS011;24769;18.712;99.000;2023-02-26T18:14:57;80.40;;;77.00;;
38994;SDS011;24769;18.712;99.000;2023-02-26T18:17:25;80.80;;;79.00;;
38994;SDS011;24769;18.712;99.000;2023-02-26T18:19:55;77.60;;;73.60;;
38994;SDS011;24769;18.712;99.000;2023-02-26T18:22:22;80.00;;;76.40;;
38994;SDS011;24769;18.712;99.000;2023-02-26T18:24:50;78.60;;;72.40;;